Time;durP1;ratioP1;P1;durP2;ratioP2;P2;SDS_P1;SDS_P2;PMS_P1;PMS_P2;Temp;Humidity;BMP_temperature;BMP_pressure;BME280_temperature;BME280_humidity;BME280_pressure;Samples;Min_cycle;Max_cycle;Signal;HPM_P1;HPM_P2
2022/05/11 00:00:10;;;;;;;8.32;4.32;;;;;;;12.67;63.44;94239.22;5083976;28;20031;-82
2022/05/11 00:02:37;;;;;;;6.15;4.32;;;;;;;12.67;63.55;94249.16;5083765;28;20024;-81
2022/05/11 00:05:08;;;;;;;7.70;4.63;;;;;;;12.69;63.39;94245.03;5083570;28;20024;-82
2022/05/11 00:07:33;;;;;;;12.68;3.88;;;;;;;12.62;62.93;94244.75;5065781;28;20077;-81
2022/05/11 00:09:59;;;;;;;10.23;4.20;;;;;;;12.60;62.85;94255.75;5083634;28;20017;-81
2022/05/11 00:12:25;;;;;;;6.95;3.38;;;;;;;12.43;62.37;94266.44;5083756;28;20032;-81
2022/05/11 00:14:50;;;;;;;6.72;3.70;;;;;;;12.31;62.83;94256.38;5083439;28;20032;-82
2022/05/11 00:17:16;;;;;;;10.60;3.65;;;;;;;12.22;63.65;94269.72;5083235;28;20020;-81
2022/05/11 00:19:41;;;;;;;8.07;3.90;;;;;;;12.11;64.27;94263.13;5083404;28;20017;-82
2022/05/11 00:22:07;;;;;;;10.05;4.57;;;;;;;12.08;64.54;94249.59;5083484;28;20103;-81
2022/05/11 00:24:32;;;;;;;9.70;5.15;;;;;;;12.07;64.86;94248.00;5083336;28;20088;-81
2022/05/11 00:26:58;;;;;;;6.78;4.45;;;;;;;12.11;64.46;94255.13;5083472;28;20032;-83
2022/05/11 00:29:23;;;;;;;7.53;3.95;;;;;;;12.12;64.11;94245.97;5083354;28;20030;-82
2022/05/11 00:31:49;;;;;;;8.25;4.05;;;;;;;12.16;64.04;94233.56;5083289;28;20040;-83
2022/05/11 00:34:14;;;;;;;6.70;4.13;;;;;;;12.15;64.21;94231.19;5083211;28;20099;-83
2022/05/11 00:36:39;;;;;;;8.60;4.38;;;;;;;12.16;64.47;94230.13;5065409;28;20024;-83
2022/05/11 00:39:05;;;;;;;12.23;4.20;;;;;;;12.20;64.39;94231.06;5083254;28;20024;-81
2022/05/11 00:41:30;;;;;;;6.22;3.63;;;;;;;12.20;64.30;94229.16;5083149;28;20024;-80
2022/05/11 00:43:58;;;;;;;5.70;3.22;;;;;;;12.22;63.82;94223.53;5083302;28;20020;-81
2022/05/11 00:46:39;;;;;;;9.20;4.15;;;;;;;12.23;63.71;94225.88;5083245;28;20021;-81
2022/05/11 00:52:12;;;;;;;7.00;3.67;;;;;;;12.21;63.65;94232.63;5082830;28;20070;-81
2022/05/11 00:54:45;;;;;;;7.97;3.35;;;;;;;12.18;63.40;94231.38;5082794;28;20051;-80
2022/05/11 00:57:21;;;;;;;8.15;3.72;;;;;;;12.19;63.37;94234.81;5082845;28;20049;-80
2022/05/11 00:59:50;;;;;;;6.93;3.45;;;;;;;12.16;63.42;94235.47;5065014;28;20024;-80
2022/05/11 01:02:17;;;;;;;8.27;3.20;;;;;;;12.13;63.47;94231.53;5082898;28;20034;-79
2022/05/11 01:04:43;;;;;;;5.60;3.55;;;;;;;12.12;63.12;94240.63;5082632;28;20032;-79
2022/05/11 01:07:11;;;;;;;6.20;3.63;;;;;;;12.11;62.37;94236.41;5082905;28;20246;-80
2022/05/11 01:09:36;;;;;;;6.88;3.33;;;;;;;12.09;62.92;94251.16;5082607;28;20306;-80
2022/05/11 01:12:07;;;;;;;9.40;3.53;;;;;;;12.09;62.97;94251.97;5082994;28;20013;-80
2022/05/11 01:14:38;;;;;;;4.75;3.28;;;;;;;12.08;63.23;94247.72;5082732;28;20013;-80
2022/05/11 01:17:04;;;;;;;8.05;3.45;;;;;;;12.06;62.91;94252.56;5082559;28;20028;-79
2022/05/11 01:19:40;;;;;;;4.20;2.97;;;;;;;12.04;62.13;94252.09;5083025;28;20085;-79
2022/05/11 01:22:33;;;;;;;4.97;3.05;;;;;;;11.99;62.79;94257.59;5082784;28;20024;-79
2022/05/11 01:24:59;;;;;;;11.23;3.78;;;;;;;11.96;63.07;94255.53;5082834;28;20039;-79
2022/05/11 01:27:27;;;;;;;9.93;4.32;;;;;;;11.95;63.18;94251.31;5082654;28;20025;-79
2022/05/11 01:30:00;;;;;;;6.07;3.53;;;;;;;11.93;63.22;94246.28;5082849;28;20054;-80
2022/05/11 01:32:27;;;;;;;5.65;3.60;;;;;;;11.94;63.63;94239.03;5082596;28;20376;-80
2022/05/11 01:35:07;;;;;;;15.18;3.80;;;;;;;11.92;63.26;94230.56;5082462;28;20021;-80
2022/05/11 01:37:37;;;;;;;6.97;2.92;;;;;;;11.90;63.56;94224.75;5082456;28;20100;-80
2022/05/11 01:40:03;;;;;;;8.60;3.25;;;;;;;11.88;63.50;94224.22;5082690;28;20016;-80
2022/05/11 01:42:29;;;;;;;6.93;3.30;;;;;;;11.81;63.44;94228.16;5082757;28;20024;-81
2022/05/11 01:44:54;;;;;;;6.93;3.25;;;;;;;11.82;63.42;94226.25;5064739;28;20196;-80
2022/05/11 01:47:20;;;;;;;4.80;2.80;;;;;;;11.80;63.52;94226.56;5082473;28;20035;-80
2022/05/11 01:49:45;;;;;;;6.78;3.15;;;;;;;11.79;63.75;94233.00;5082415;28;20066;-80
2022/05/11 01:52:11;;;;;;;7.30;3.33;;;;;;;11.76;63.33;94227.50;5082481;28;20029;-80
2022/05/11 01:54:36;;;;;;;7.28;3.10;;;;;;;11.72;63.39;94230.00;5082398;28;20013;-80
2022/05/11 01:57:02;;;;;;;6.53;3.35;;;;;;;11.71;63.83;94225.00;5082272;28;20063;-80
2022/05/11 01:59:27;;;;;;;7.28;3.88;;;;;;;11.65;64.04;94237.69;5082272;28;20075;-80
2022/05/11 02:01:54;;;;;;;7.57;3.90;;;;;;;11.61;64.60;94231.41;5082427;28;20223;-80
2022/05/11 02:10:01;;;;;;;8.18;4.22;;;;;;;11.55;64.61;94236.09;5086258;28;20031;-80
2022/05/11 02:12:26;;;;;;;6.78;3.97;;;;;;;11.55;65.14;94232.63;5086100;28;20226;-80
2022/05/11 02:14:52;;;;;;;5.45;3.72;;;;;;;11.54;65.38;94231.06;5085908;28;20052;-80
2022/05/11 02:17:20;;;;;;;7.25;4.10;;;;;;;11.50;65.42;94235.44;5085912;28;20135;-80
2022/05/11 02:19:45;;;;;;;7.47;3.97;;;;;;;11.50;65.51;94230.91;5085804;28;20047;-80
2022/05/11 02:22:11;;;;;;;5.50;4.13;;;;;;;11.49;65.62;94237.31;5085608;28;20066;-80
2022/05/11 02:24:37;;;;;;;7.03;4.25;;;;;;;11.49;65.67;94231.22;5085685;28;20032;-80
2022/05/11 02:27:03;;;;;;;8.80;3.53;;;;;;;11.49;65.75;94236.56;5085649;28;20226;-80
2022/05/11 02:29:29;;;;;;;4.82;3.42;;;;;;;11.49;65.64;94229.31;5085697;28;20024;-80
2022/05/11 02:31:55;;;;;;;5.03;3.55;;;;;;;11.45;65.60;94229.16;5085616;28;20024;-80
2022/05/11 02:37:09;;;;;;;6.25;4.07;;;;;;;11.46;66.10;94229.94;5056834;28;20040;-80
2022/05/11 02:39:34;;;;;;;6.63;3.80;;;;;;;11.46;65.84;94227.28;5085423;28;20099;-81
2022/05/11 02:42:00;;;;;;;6.10;4.03;;;;;;;11.44;66.04;94222.25;5085597;28;20016;-81
2022/05/11 02:44:26;;;;;;;6.72;4.47;;;;;;;11.38;66.32;94217.38;5085178;28;20043;-81
2022/05/11 02:46:51;;;;;;;6.35;4.07;;;;;;;11.39;66.53;94234.94;5085416;28;20465;-81
2022/05/11 02:49:18;;;;;;;5.50;3.08;;;;;;;11.41;66.55;94233.53;5085451;28;20023;-82
2022/05/11 02:51:43;;;;;;;7.25;4.13;;;;;;;11.45;66.75;94229.16;5085127;28;20029;-82
2022/05/11 02:54:09;;;;;;;10.57;3.70;;;;;;;11.48;66.90;94238.44;5085131;28;20131;-81
2022/05/11 02:56:34;;;;;;;6.57;4.50;;;;;;;11.47;66.74;94238.75;5067283;28;20028;-81
2022/05/11 02:59:00;;;;;;;8.07;3.78;;;;;;;11.53;66.69;94240.16;5084936;28;20040;-81
2022/05/11 03:01:26;;;;;;;7.18;3.42;;;;;;;11.54;66.59;94239.06;5084980;28;20025;-81
2022/05/11 03:03:51;;;;;;;7.95;3.40;;;;;;;11.57;66.43;94236.56;5084952;28;20021;-81
2022/05/11 03:06:17;;;;;;;11.90;4.10;;;;;;;11.59;66.58;94238.94;5084781;28;20039;-81
2022/05/11 03:08:43;;;;;;;6.07;3.50;;;;;;;11.62;66.81;94243.63;5085002;28;20031;-81
2022/05/11 03:11:08;;;;;;;6.43;3.90;;;;;;;11.64;66.61;94236.09;5084585;28;20135;-81
2022/05/11 03:13:34;;;;;;;6.20;3.30;;;;;;;11.69;66.36;94243.22;5084479;28;20020;-80
2022/05/11 03:15:59;;;;;;;8.75;3.78;;;;;;;11.72;66.19;94254.03;5084934;28;20017;-82
2022/05/11 03:18:25;;;;;;;8.57;3.70;;;;;;;11.76;66.19;94256.88;5084724;28;20016;-82
2022/05/11 03:20:54;;;;;;;7.43;3.92;;;;;;;11.80;66.05;94263.19;5084654;28;20315;-80
2022/05/11 03:23:19;;;;;;;9.00;4.65;;;;;;;11.83;65.88;94260.69;5066606;28;20020;-81
2022/05/11 03:25:44;;;;;;;7.03;4.25;;;;;;;11.87;65.75;94263.53;5084475;28;20160;-80
2022/05/11 03:28:10;;;;;;;10.30;4.30;;;;;;;11.90;65.88;94254.91;5084325;28;20307;-80
2022/05/11 03:30:35;;;;;;;8.70;4.40;;;;;;;11.96;65.74;94259.00;5084170;28;20031;-80
2022/05/11 03:35:45;;;;;;;6.60;4.38;;;;;;;12.03;65.93;94256.66;5084255;28;20108;-80
2022/05/11 03:38:10;;;;;;;9.75;4.75;;;;;;;12.08;66.10;94258.41;5084358;28;20036;-80
2022/05/11 03:40:37;;;;;;;10.70;5.03;;;;;;;12.11;66.69;94254.31;5084104;28;20036;-81
2022/05/11 03:43:03;;;;;;;6.88;4.05;;;;;;;12.20;66.95;94263.13;5066520;28;20032;-80
2022/05/11 03:45:29;;;;;;;8.30;4.60;;;;;;;12.21;67.10;94259.34;5083993;28;20052;-80
2022/05/11 03:47:55;;;;;;;8.70;4.35;;;;;;;12.21;66.83;94259.34;5084024;28;20086;-81
2022/05/11 03:50:22;;;;;;;10.05;4.70;;;;;;;12.24;66.88;94253.38;5084132;28;20030;-81
2022/05/11 03:52:49;;;;;;;9.80;4.35;;;;;;;12.27;66.96;94268.00;5084088;28;20040;-81
2022/05/11 03:55:15;;;;;;;7.45;4.40;;;;;;;12.28;67.05;94264.25;5083966;28;20016;-81
2022/05/11 03:57:41;;;;;;;10.55;4.85;;;;;;;12.28;66.91;94266.91;5083831;28;20323;-80
2022/05/11 04:00:12;;;;;;;8.55;4.60;;;;;;;12.28;66.79;94265.03;5083600;28;20035;-81
2022/05/11 04:02:38;;;;;;;10.57;5.10;;;;;;;12.29;66.67;94265.81;5083866;28;20031;-81
2022/05/11 04:05:04;;;;;;;9.93;4.97;;;;;;;12.31;66.70;94274.28;5083519;28;20055;-81
2022/05/11 04:07:32;;;;;;;11.30;5.70;;;;;;;12.29;66.59;94273.81;5083816;28;20054;-81
2022/05/11 04:09:57;;;;;;;10.55;5.60;;;;;;;12.31;66.47;94280.41;5083639;28;20230;-81
2022/05/11 04:12:24;;;;;;;6.72;4.70;;;;;;;12.31;66.30;94275.06;5083717;28;20044;-81
2022/05/11 04:14:50;;;;;;;7.50;5.25;;;;;;;12.34;66.14;94281.69;5083500;28;20039;-81
2022/05/11 04:17:15;;;;;;;9.82;5.53;;;;;;;12.37;66.24;94278.38;5083485;28;20211;-81
2022/05/11 04:19:40;;;;;;;7.68;5.13;;;;;;;12.39;66.81;94281.53;5083243;28;20052;-81
2022/05/11 04:22:06;;;;;;;17.25;6.97;;;;;;;12.38;67.26;94285.31;5083473;28;20031;-81
2022/05/11 04:24:31;;;;;;;17.15;6.47;;;;;;;12.40;67.11;94291.13;5083208;28;20020;-80
2022/05/11 04:26:58;;;;;;;10.55;5.78;;;;;;;12.45;67.07;94299.00;5082783;28;20016;-80
2022/05/11 04:29:24;;;;;;;15.70;6.40;;;;;;;12.44;66.76;94300.09;5083130;28;20088;-81
2022/05/11 04:31:56;;;;;;;12.68;5.78;;;;;;;12.47;66.58;94302.13;5083160;28;20211;-80
2022/05/11 04:34:23;;;;;;;12.23;6.13;;;;;;;12.46;66.86;94308.59;5083073;28;20021;-80
2022/05/11 04:36:48;;;;;;;15.45;5.90;;;;;;;12.40;67.19;94312.53;5083169;28;20048;-80
2022/05/11 04:39:14;;;;;;;13.07;6.47;;;;;;;12.48;67.38;94313.63;5082926;28;20085;-80
2022/05/11 04:41:39;;;;;;;18.83;6.07;;;;;;;12.50;67.53;94314.13;5083256;28;20218;-80
2022/05/11 04:44:05;;;;;;;12.45;6.47;;;;;;;12.54;67.74;94315.84;5082704;28;20023;-81
2022/05/11 04:46:33;;;;;;;12.65;5.78;;;;;;;12.61;67.23;94315.38;5083044;28;20027;-81
2022/05/11 04:49:19;;;;;;;22.02;6.13;;;;;;;12.67;66.87;94324.03;5082681;28;20199;-80
2022/05/11 04:51:46;;;;;;;15.68;7.47;;;;;;;12.76;66.54;94319.44;5082653;28;20017;-81
2022/05/11 04:54:11;;;;;;;13.55;6.30;;;;;;;12.82;65.96;94316.31;5082823;28;20017;-81
2022/05/11 04:56:40;;;;;;;14.00;6.38;;;;;;;12.91;65.00;94313.63;5082936;28;20055;-81
2022/05/11 04:59:08;;;;;;;14.88;6.80;;;;;;;12.96;64.74;94310.78;5082818;28;20055;-81
2022/05/11 05:01:34;;;;;;;12.07;7.22;;;;;;;13.03;64.56;94316.44;5084156;28;20023;-82
2022/05/11 05:04:00;;;;;;;12.93;5.55;;;;;;;13.11;64.00;94316.75;5082720;28;20326;-82
2022/05/11 05:06:27;;;;;;;14.90;5.88;;;;;;;13.11;62.93;94314.88;5082541;28;20055;-81
2022/05/11 05:09:03;;;;;;;12.40;5.75;;;;;;;13.11;62.67;94322.91;5082577;28;20199;-86
2022/05/11 05:11:29;;;;;;;15.13;6.05;;;;;;;13.14;62.81;94321.47;5083245;28;20025;-94
2022/05/11 05:13:54;;;;;;;23.20;6.97;;;;;;;13.13;63.71;94323.38;5083535;28;20147;-90
2022/05/11 05:16:20;;;;;;;15.32;5.18;;;;;;;13.19;63.53;94324.00;5083097;28;20036;-84
2022/05/11 05:18:46;;;;;;;13.15;5.72;;;;;;;13.23;62.54;94319.56;5082641;28;20044;-87
2022/05/11 05:21:11;;;;;;;9.85;4.88;;;;;;;13.19;61.77;94319.41;5082742;28;20020;-79
2022/05/11 05:23:37;;;;;;;12.30;5.03;;;;;;;13.21;60.86;94322.56;5082448;28;20020;-80
2022/05/11 05:26:03;;;;;;;8.45;5.40;;;;;;;13.28;60.98;94332.78;5082599;28;20421;-81
2022/05/11 05:31:16;;;;;;;9.18;5.72;;;;;;;13.37;60.95;94336.28;5082533;28;20389;-81
2022/05/11 05:33:42;;;;;;;9.32;5.18;;;;;;;13.46;60.36;94327.44;5082470;28;20021;-80
2022/05/11 05:36:09;;;;;;;12.90;6.43;;;;;;;13.53;61.46;94335.75;5082457;28;20040;-81
2022/05/11 05:38:38;;;;;;;12.50;5.65;;;;;;;13.60;61.81;94338.72;5086531;28;20016;-81
2022/05/11 05:41:07;;;;;;;17.10;5.65;;;;;;;13.71;61.57;94342.63;5068634;28;20020;-81
2022/05/11 05:43:32;;;;;;;13.57;5.93;;;;;;;13.87;60.74;94347.47;5086422;28;20275;-81
2022/05/11 05:45:58;;;;;;;14.40;5.45;;;;;;;13.85;58.89;94345.88;5086133;28;20038;-81
2022/05/11 05:48:24;;;;;;;10.95;5.53;;;;;;;13.84;58.96;94355.03;5068223;28;20342;-81
2022/05/11 05:51:20;;;;;;;11.02;5.70;;;;;;;13.77;59.41;94357.41;5085957;28;20027;-81
2022/05/11 05:53:45;;;;;;;12.50;6.10;;;;;;;13.67;60.07;94357.75;5085940;28;20029;-83
2022/05/11 05:56:12;;;;;;;10.85;5.97;;;;;;;13.65;60.10;94365.31;5085916;28;20020;-84
2022/05/11 05:58:39;;;;;;;17.80;6.00;;;;;;;13.66;61.09;94374.94;5085791;28;20056;-84
2022/05/11 06:01:08;;;;;;;13.63;6.50;;;;;;;13.62;61.75;94372.13;5086059;28;20064;-84
2022/05/11 06:03:35;;;;;;;12.75;6.43;;;;;;;13.72;61.81;94376.34;5085892;28;20028;-84
2022/05/11 06:06:00;;;;;;;12.85;6.22;;;;;;;13.77;60.73;94375.38;5086000;28;20227;-84
2022/05/11 06:08:27;;;;;;;23.23;7.90;;;;;;;13.71;60.96;94368.63;5085800;28;20096;-84
2022/05/11 06:10:55;;;;;;;11.30;7.00;;;;;;;13.80;61.55;94378.22;5085992;28;20020;-83
2022/05/11 06:13:22;;;;;;;13.32;6.63;;;;;;;13.90;61.03;94371.72;5085748;28;20092;-84
2022/05/11 06:15:52;;;;;;;22.25;7.03;;;;;;;13.99;60.95;94372.47;5085843;28;20187;-83
2022/05/11 06:21:18;;;;;;;12.65;7.93;;;;;;;14.15;60.22;94382.66;5074171;28;20047;-84
2022/05/11 06:23:44;;;;;;;15.18;7.80;;;;;;;14.28;60.39;94376.28;5085821;28;20020;-87
2022/05/11 06:26:10;;;;;;;13.30;6.60;;;;;;;14.33;59.74;94377.97;5085992;28;20025;-86
2022/05/11 06:28:40;;;;;;;11.82;6.97;;;;;;;14.40;59.73;94375.59;5086269;28;20216;-85
2022/05/11 06:31:07;;;;;;;15.23;7.28;;;;;;;14.50;59.67;94369.06;5085612;28;20037;-87
2022/05/11 06:33:33;;;;;;;16.02;6.45;;;;;;;14.64;58.93;94385.72;5086241;28;20032;-88
2022/05/11 06:36:03;;;;;;;18.67;6.03;;;;;;;14.70;58.85;94386.34;5085898;28;20047;-86
2022/05/11 06:38:28;;;;;;;9.07;6.03;;;;;;;14.76;58.75;94382.34;5067610;28;20378;-87
2022/05/11 06:40:57;;;;;;;15.50;6.22;;;;;;;14.80;58.42;94385.94;5085642;28;20044;-88
2022/05/11 06:43:22;;;;;;;17.95;6.32;;;;;;;14.80;57.87;94380.59;5085813;28;20021;-84
2022/05/11 06:45:48;;;;;;;12.65;5.85;;;;;;;14.85;58.21;94380.38;5086478;28;20036;-92
2022/05/11 06:48:16;;;;;;;12.52;6.25;;;;;;;14.93;57.90;94387.56;5085274;28;20020;-85
2022/05/11 06:50:44;;;;;;;12.57;4.90;;;;;;;14.99;56.38;94380.13;5085658;28;20078;-87
2022/05/11 06:53:12;;;;;;;13.15;5.07;;;;;;;15.05;55.90;94378.81;5085305;28;20223;-85
2022/05/11 07:01:16;;;;;;;11.35;4.40;;;;;;;15.21;54.92;94373.63;5085194;28;20089;-87
2022/05/11 07:03:44;;;;;;;10.48;4.53;;;;;;;15.34;54.86;94372.53;5085401;28;20025;-84
2022/05/11 07:06:11;;;;;;;14.02;4.68;;;;;;;15.45;53.13;94365.66;5085086;28;20056;-83
2022/05/11 07:08:47;;;;;;;9.35;4.25;;;;;;;15.58;52.69;94371.06;5085286;28;20233;-83
2022/05/11 07:13:57;;;;;;;8.55;3.80;;;;;;;15.72;51.79;94371.56;5084874;28;20054;-85
2022/05/11 07:16:27;;;;;;;17.60;4.57;;;;;;;15.84;52.19;94371.59;5084798;28;20025;-84
2022/05/11 07:18:56;;;;;;;7.25;3.13;;;;;;;15.93;49.68;94374.19;5084928;28;20340;-86
2022/05/11 07:21:24;;;;;;;7.80;3.40;;;;;;;16.03;48.82;94357.59;5084821;28;20028;-85
2022/05/11 07:23:52;;;;;;;11.70;3.03;;;;;;;16.13;48.19;94361.78;5085054;28;20050;-91
2022/05/11 07:26:18;;;;;;;7.22;2.75;;;;;;;16.23;47.57;94365.91;5085501;28;20256;-87
2022/05/11 07:28:43;;;;;;;8.20;3.33;;;;;;;16.32;46.59;94353.13;5067035;28;20046;-87
2022/05/11 07:31:11;;;;;;;7.63;2.95;;;;;;;16.48;46.63;94355.94;5085070;28;20196;-88
2022/05/11 07:33:37;;;;;;;9.55;3.10;;;;;;;16.62;46.37;94355.59;5085324;28;20321;-86
2022/05/11 07:36:06;;;;;;;6.60;2.55;;;;;;;16.73;45.81;94350.50;5085166;28;20095;-88
2022/05/11 07:38:34;;;;;;;13.60;3.03;;;;;;;16.81;45.61;94353.13;5084682;28;20092;-84
2022/05/11 07:43:51;;;;;;;6.85;3.00;;;;;;;16.82;44.80;94349.28;5023109;28;20101;-86
2022/05/11 07:46:19;;;;;;;7.05;2.65;;;;;;;16.93;44.97;94349.59;5062109;28;20226;-82
2022/05/11 07:48:47;;;;;;;7.63;2.67;;;;;;;17.00;44.50;94346.34;5084933;28;20016;-83
2022/05/11 07:51:13;;;;;;;9.07;2.45;;;;;;;17.04;44.50;94339.16;5066256;28;20016;-84
2022/05/11 07:53:38;;;;;;;12.30;2.92;;;;;;;17.19;44.75;94340.31;5083999;28;20077;-87
2022/05/11 08:01:37;;;;;;;7.30;3.25;;;;;;;17.31;45.75;94342.97;5083466;28;20047;-85
2022/05/11 08:04:06;;;;;;;9.77;2.85;;;;;;;17.37;44.94;94346.19;5083951;28;20065;-85
2022/05/11 08:06:32;;;;;;;6.78;3.30;;;;;;;17.36;45.92;94348.13;5084734;28;20104;-88
2022/05/11 08:08:57;;;;;;;8.85;3.15;;;;;;;17.50;45.55;94338.81;5084102;28;20278;-84
2022/05/11 08:11:22;;;;;;;7.28;2.78;;;;;;;17.59;44.95;94342.16;5083996;28;20013;-91
2022/05/11 08:13:48;;;;;;;14.85;2.85;;;;;;;17.73;43.39;94344.44;5083777;28;20368;-84
2022/05/11 08:16:13;;;;;;;6.88;2.92;;;;;;;17.78;44.13;94339.56;5083304;28;20017;-86
2022/05/11 08:18:39;;;;;;;8.07;2.65;;;;;;;17.90;43.62;94338.72;5083732;28;20708;-85
2022/05/11 08:21:04;;;;;;;8.15;2.90;;;;;;;17.98;43.17;94342.41;5083708;28;20051;-86
2022/05/11 08:23:31;;;;;;;8.07;3.28;;;;;;;18.04;43.67;94347.16;5083761;28;20025;-88
2022/05/11 08:25:57;;;;;;;5.63;2.83;;;;;;;18.07;41.88;94340.28;5083335;28;20032;-86
2022/05/11 08:28:25;;;;;;;6.07;2.13;;;;;;;18.07;38.69;94334.91;5065894;28;20052;-88
2022/05/11 08:33:38;;;;;;;6.38;1.92;;;;;;;18.07;38.60;94329.50;5076432;28;20123;-81
2022/05/11 08:36:10;;;;;;;5.32;2.05;;;;;;;18.12;39.08;94331.94;5083649;28;20047;-87
2022/05/11 08:38:39;;;;;;;5.57;2.75;;;;;;;18.25;40.47;94329.94;5083991;28;20205;-95
2022/05/11 08:41:33;;;;;;;3.78;2.20;;;;;;;18.37;39.55;94329.06;5083859;28;20021;-88
2022/05/11 08:44:11;;;;;;;4.97;2.22;;;;;;;18.42;39.18;94328.78;5066904;28;20020;-90
2022/05/11 08:46:58;;;;;;;11.07;2.67;;;;;;;18.53;39.37;94329.81;5083773;28;20028;-89
2022/05/11 08:53:09;;;;;;;6.40;2.00;;;;;;;18.82;38.31;94317.72;5073900;28;20271;-89
2022/05/11 08:55:50;;;;;;;10.15;3.13;;;;;;;18.95;38.22;94326.50;5083407;28;20028;-82
2022/05/11 08:58:22;;;;;;;5.38;2.90;;;;;;;18.99;37.58;94318.44;5082784;28;20109;-84
2022/05/11 09:00:49;;;;;;;8.25;2.33;;;;;;;19.09;37.83;94326.00;5083210;28;20223;-83
2022/05/11 09:03:27;;;;;;;4.68;1.83;;;;;;;19.16;38.09;94319.94;5083109;28;20028;-85
2022/05/11 09:05:55;;;;;;;5.18;1.85;;;;;;;19.35;38.77;94336.13;5083734;28;20021;-95
2022/05/11 09:08:20;;;;;;;9.30;1.92;;;;;;;19.35;33.75;94335.38;5470629;22;20049;-83
2022/05/11 09:10:46;;;;;;;6.88;1.95;;;;;;;19.33;35.71;94314.09;5062929;28;20029;-83
2022/05/11 09:13:14;;;;;;;4.72;2.03;;;;;;;19.44;35.40;94323.19;5069307;28;20021;-83
2022/05/11 09:15:54;;;;;;;5.45;1.90;;;;;;;19.37;35.50;94328.47;5069663;28;20037;-88
2022/05/11 09:18:27;;;;;;;6.68;1.90;;;;;;;19.39;34.42;94326.19;5068649;28;20098;-85
2022/05/11 09:20:53;;;;;;;3.63;1.70;;;;;;;19.45;34.31;94322.03;5069356;28;20048;-83
2022/05/11 09:23:34;;;;;;;5.32;1.77;;;;;;;19.57;34.72;94317.63;5068085;28;20029;-84
2022/05/11 09:26:07;;;;;;;12.05;2.20;;;;;;;19.67;33.41;94317.03;5069537;28;20254;-87
2022/05/11 09:28:36;;;;;;;13.93;2.45;;;;;;;19.82;34.11;94326.19;5069564;28;20027;-84
2022/05/11 09:31:09;;;;;;;8.52;2.33;;;;;;;19.84;35.15;94323.91;5069330;28;20320;-86
2022/05/11 09:33:38;;;;;;;5.75;1.92;;;;;;;19.86;35.44;94310.81;5068416;28;20036;-87
2022/05/11 09:36:04;;;;;;;5.00;1.73;;;;;;;19.92;35.05;94314.00;5069318;28;20029;-88
2022/05/11 09:38:40;;;;;;;4.22;2.17;;;;;;;20.00;33.93;94327.28;5069390;28;20021;-87
2022/05/11 09:41:29;;;;;;;6.60;1.90;;;;;;;20.04;34.46;94317.28;5069486;28;20080;-83
2022/05/11 09:43:58;;;;;;;6.13;1.75;;;;;;;20.03;35.03;94321.16;5069071;28;20024;-87
2022/05/11 09:46:26;;;;;;;8.95;2.13;;;;;;;20.10;33.24;94320.50;5069240;28;20075;-87
2022/05/11 09:52:11;;;;;;;8.15;1.80;;;;;;;20.28;33.13;94314.59;5069364;28;20031;-84
2022/05/11 09:54:42;;;;;;;5.05;2.35;;;;;;;20.34;33.20;94308.50;5069445;28;20017;-84
2022/05/11 09:57:13;;;;;;;5.53;1.95;;;;;;;20.40;33.46;94307.03;5069651;28;20025;-85
2022/05/11 09:59:42;;;;;;;4.53;1.95;;;;;;;20.49;35.20;94298.63;5069168;28;20068;-83
2022/05/11 10:02:15;;;;;;;7.63;2.55;;;;;;;20.70;33.93;94300.91;5069498;28;20028;-83
2022/05/11 10:05:01;;;;;;;5.75;2.53;;;;;;;20.75;34.10;94291.69;5069124;28;20106;-83
2022/05/11 10:07:29;;;;;;;4.03;1.98;;;;;;;20.78;33.05;94299.06;5069416;28;20106;-85
2022/05/11 10:10:01;;;;;;;4.95;2.20;;;;;;;20.75;33.68;94288.97;5069313;28;20028;-86
2022/05/11 10:12:31;;;;;;;3.58;1.58;;;;;;;20.87;32.44;94291.44;5069156;28;20518;-86
2022/05/11 10:23:35;;;;;;;6.68;2.20;;;;;;;21.09;32.47;94270.81;5066575;28;20071;-85
2022/05/11 10:26:19;;;;;;;7.40;1.75;;;;;;;21.22;32.54;94269.41;5065746;28;20029;-85
2022/05/11 10:29:06;;;;;;;3.47;1.50;;;;;;;21.36;32.29;94262.59;5065439;28;20017;-83
2022/05/11 10:31:45;;;;;;;9.23;2.35;;;;;;;21.33;33.48;94274.97;5065609;28;20027;-85
2022/05/11 10:34:49;;;;;;;3.05;1.77;;;;;;;21.38;32.95;94274.59;5065532;28;20088;-83
2022/05/11 10:37:31;;;;;;;4.68;1.30;;;;;;;21.30;31.42;94274.91;5055936;28;20039;-83
2022/05/11 10:40:09;;;;;;;3.75;2.08;;;;;;;21.32;31.06;94273.38;5065296;28;20028;-82
2022/05/11 10:42:46;;;;;;;6.10;2.03;;;;;;;21.51;30.72;94268.94;5064620;28;20036;-82
2022/05/11 10:45:49;;;;;;;4.22;2.15;;;;;;;21.59;30.10;94273.28;5065659;28;20032;-82
2022/05/11 10:48:35;;;;;;;5.30;1.80;;;;;;;21.58;29.68;94269.03;5061892;28;20044;-82
2022/05/11 10:51:15;;;;;;;5.10;1.42;;;;;;;21.81;31.45;94271.56;5065367;28;20021;-82
2022/05/11 10:53:57;;;;;;;3.80;1.63;;;;;;;22.20;29.42;94279.22;5065306;28;20025;-83
2022/05/11 10:57:16;;;;;;;8.82;2.17;;;;;;;22.31;28.22;94274.69;5065257;28;20036;-83
2022/05/11 10:59:54;;;;;;;5.30;1.90;;;;;;;22.29;29.05;94278.91;5031211;28;20025;-83
2022/05/11 11:02:44;;;;;;;3.13;1.35;;;;;;;22.40;27.78;94277.06;5064843;28;20120;-82
2022/05/11 11:05:31;;;;;;;6.85;1.67;;;;;;;22.38;28.31;94284.81;5064737;28;20054;-82
2022/05/11 11:08:21;;;;;;;4.82;1.98;;;;;;;22.25;28.26;94284.34;5064535;28;20048;-80
2022/05/11 11:11:02;;;;;;;2.85;1.65;;;;;;;22.10;28.99;94269.84;5064764;28;20021;-78
2022/05/11 11:13:34;;;;;;;3.80;1.67;;;;;;;22.24;29.70;94272.69;5065006;28;20032;-81
2022/05/11 11:16:00;;;;;;;;;;;;;;;22.31;30.13;94277.41;5065129;28;20021;-78
2022/05/11 11:18:37;;;;;;;10.55;2.63;;;;;;;22.29;31.48;94278.91;5064850;28;19905;-84
2022/05/11 11:21:05;;;;;;;3.90;2.15;;;;;;;22.18;33.61;94287.75;5063557;28;20088;-81
2022/05/11 11:23:35;;;;;;;7.22;2.00;;;;;;;21.96;33.57;94294.16;5064638;28;20037;-83
2022/05/11 11:26:05;;;;;;;6.43;1.80;;;;;;;21.61;33.69;94287.25;5064291;28;20078;-81
2022/05/11 11:28:52;;;;;;;6.13;1.92;;;;;;;21.50;33.72;94295.28;5064358;28;20315;-84
2022/05/11 11:31:19;;;;;;;9.52;1.92;;;;;;;21.33;33.36;94306.69;5064131;28;20044;-83
2022/05/11 11:34:00;;;;;;;5.95;1.58;;;;;;;21.02;34.29;94306.75;5064495;28;20180;-83
2022/05/11 11:36:30;;;;;;;3.85;1.90;;;;;;;20.75;35.16;94305.22;5064256;28;20027;-81
2022/05/11 11:38:59;;;;;;;9.27;1.92;;;;;;;20.63;36.08;94298.09;5064257;28;20088;-80
2022/05/11 11:41:28;;;;;;;15.35;3.03;;;;;;;20.60;35.93;94307.75;5064154;28;20025;-82
2022/05/11 11:44:02;;;;;;;5.13;1.95;;;;;;;20.76;35.73;94304.06;5064438;28;20017;-82
2022/05/11 11:46:38;;;;;;;5.60;2.33;;;;;;;20.95;34.30;94320.19;5062708;28;20231;-80
2022/05/11 11:49:10;;;;;;;7.93;1.65;;;;;;;21.07;33.32;94315.69;5063929;28;20095;-82
2022/05/11 11:51:50;;;;;;;6.18;2.05;;;;;;;21.14;32.45;94319.25;5062880;28;20035;-81
2022/05/11 11:54:27;;;;;;;5.97;1.30;;;;;;;21.32;31.78;94314.03;5063924;28;20020;-82
2022/05/11 11:56:54;;;;;;;3.63;1.50;;;;;;;21.36;30.81;94306.72;5063968;28;20107;-82
2022/05/11 11:59:23;;;;;;;4.38;1.85;;;;;;;21.54;31.40;94306.19;5063577;28;20021;-82
2022/05/11 12:01:49;;;;;;;6.18;1.67;;;;;;;21.75;30.98;94305.59;5063662;28;20021;-82
2022/05/11 12:04:14;;;;;;;6.13;1.30;;;;;;;21.87;30.50;94304.56;5063735;28;20032;-83
2022/05/11 12:15:12;;;;;;;3.90;2.20;;;;;;;22.32;30.49;94310.75;5063777;28;20023;-81
2022/05/11 12:17:39;;;;;;;3.72;1.67;;;;;;;22.30;30.42;94304.94;5063392;28;20036;-85
2022/05/11 12:20:12;;;;;;;5.47;1.95;;;;;;;22.21;30.36;94299.81;5063610;28;20311;-83
2022/05/11 12:22:45;;;;;;;4.18;2.00;;;;;;;22.13;31.50;94306.34;5063678;28;20075;-86
2022/05/11 12:25:19;;;;;;;4.28;1.80;;;;;;;22.00;32.56;94300.41;5063485;28;20039;-84
2022/05/11 12:27:46;;;;;;;3.45;1.98;;;;;;;21.78;32.51;94302.94;5063458;28;20048;-84
2022/05/11 12:30:39;;;;;;;9.40;2.08;;;;;;;21.47;33.45;94320.44;5063173;28;20313;-81
2022/05/11 12:33:07;;;;;;;7.30;2.00;;;;;;;20.83;35.33;94301.47;5062922;28;20028;-82
2022/05/11 12:35:38;;;;;;;9.05;2.55;;;;;;;20.66;36.83;94318.25;5062229;28;20017;-82
2022/05/11 12:38:12;;;;;;;3.58;1.85;;;;;;;20.29;38.43;94308.78;5062376;28;20044;-82
2022/05/11 12:40:50;;;;;;;5.43;1.80;;;;;;;20.15;38.16;94303.97;5062836;28;20087;-82
2022/05/11 12:43:31;;;;;;;4.65;1.98;;;;;;;20.06;38.93;94313.47;5062543;28;20380;-82
2022/05/11 12:46:03;;;;;;;3.30;2.00;;;;;;;19.91;39.30;94302.41;5062393;28;20094;-82